Time;durP1;ratioP1;P1;durP2;ratioP2;P2;SDS_P1;SDS_P2;PMS_P1;PMS_P2;Temp;Humidity;BMP_temperature;BMP_pressure;BME280_temperature;BME280_humidity;BME280_pressure;Samples;Min_cycle;Max_cycle;Signal;HPM_P1;HPM_P2
2023/08/14 00:01:42;;;;;;;2.78;1.40;;;;;;;23.13;92.92;100812.34;5091612;28;20115;-68
2023/08/14 00:04:07;;;;;;;3.20;1.70;;;;;;;23.15;93.27;100812.94;5090779;28;20024;-68
2023/08/14 00:06:32;;;;;;;3.47;1.05;;;;;;;23.12;93.30;100818.69;5092235;28;20128;-68
2023/08/14 00:08:58;;;;;;;5.32;1.55;;;;;;;23.03;93.88;100824.47;5087845;28;20051;-68
2023/08/14 00:11:23;;;;;;;3.70;1.83;;;;;;;23.16;92.18;100821.69;5080779;28;20106;-68
2023/08/14 00:13:54;;;;;;;3.85;1.67;;;;;;;23.28;91.27;100822.59;5087698;28;20042;-69
2023/08/14 00:16:20;;;;;;;2.80;1.80;;;;;;;23.21;91.78;100819.19;5083726;28;20173;-69
2023/08/14 00:18:46;;;;;;;1.88;1.20;;;;;;;23.13;92.33;100822.16;5083272;28;20024;-70
2023/08/14 00:21:12;;;;;;;3.55;1.88;;;;;;;23.02;93.45;100821.00;5086033;28;20031;-70
2023/08/14 00:23:38;;;;;;;4.00;1.80;;;;;;;22.94;94.61;100817.81;5088031;28;20028;-70
2023/08/14 00:26:04;;;;;;;2.45;1.40;;;;;;;22.87;95.14;100814.38;5090927;28;20039;-69
2023/08/14 00:28:29;;;;;;;3.65;1.67;;;;;;;22.81;96.17;100819.53;5094020;28;20115;-69
2023/08/14 00:30:55;;;;;;;2.80;1.80;;;;;;;22.67;97.15;100818.00;5090596;28;20028;-69
2023/08/14 00:33:20;;;;;;;3.47;1.60;;;;;;;22.57;97.98;100820.31;5090849;28;20077;-70
2023/08/14 00:35:45;;;;;;;1.48;1.27;;;;;;;22.49;97.79;100824.03;5094968;28;20554;-69
2023/08/14 00:38:11;;;;;;;1.60;1.50;;;;;;;22.65;95.96;100820.06;5079164;28;20087;-69
2023/08/14 00:40:36;;;;;;;2.78;1.60;;;;;;;22.84;93.98;100818.28;5085288;28;20023;-69
2023/08/14 00:43:02;;;;;;;3.75;1.35;;;;;;;22.90;93.50;100819.28;5091170;28;20051;-69
2023/08/14 00:45:28;;;;;;;3.05;1.65;;;;;;;22.83;94.11;100820.13;5092156;28;20434;-69
2023/08/14 00:47:54;;;;;;;2.22;1.33;;;;;;;22.98;92.89;100824.31;5087443;28;20029;-69
2023/08/14 00:50:20;;;;;;;3.70;1.30;;;;;;;23.18;90.99;100819.63;5092757;28;20028;-69
2023/08/14 00:52:48;;;;;;;3.88;1.38;;;;;;;23.33;89.33;100822.75;5090055;28;20084;-69
2023/08/14 00:55:18;;;;;;;3.17;1.20;;;;;;;23.39;88.69;100827.19;5085831;28;20036;-69
2023/08/14 00:57:44;;;;;;;2.10;1.65;;;;;;;23.42;88.66;100826.75;5098166;28;20081;-69
2023/08/14 01:00:11;;;;;;;5.22;1.50;;;;;;;23.41;88.69;100821.66;5092131;28;20375;-69
2023/08/14 01:02:37;;;;;;;3.17;1.42;;;;;;;23.47;88.22;100826.09;5093176;28;20032;-69
2023/08/14 01:05:02;;;;;;;2.17;1.27;;;;;;;23.44;88.27;100824.69;5086495;28;20055;-69
2023/08/14 01:07:29;;;;;;;4.10;1.63;;;;;;;23.32;89.43;100831.75;5093540;28;20055;-69
2023/08/14 01:09:56;;;;;;;3.42;1.55;;;;;;;23.14;91.32;100826.44;5085952;28;20129;-69
2023/08/14 01:12:37;;;;;;;2.58;1.33;;;;;;;22.99;92.82;100837.38;5092140;28;20493;-69
2023/08/14 01:15:10;;;;;;;3.35;1.20;;;;;;;22.85;94.73;100841.16;5089595;28;20491;-68
2023/08/14 01:17:38;;;;;;;8.00;2.17;;;;;;;22.81;94.63;100835.47;5091606;28;20032;-69
2023/08/14 01:20:05;;;;;;;3.17;1.58;;;;;;;22.68;95.81;100827.59;5088962;28;20597;-69
2023/08/14 01:22:49;;;;;;;1.90;1.45;;;;;;;22.49;97.26;100833.84;5090545;28;20043;-69
2023/08/14 01:25:25;;;;;;;2.03;1.40;;;;;;;22.37;97.82;100840.84;5086126;28;20032;-69
2023/08/14 01:27:51;;;;;;;3.35;2.08;;;;;;;22.29;98.49;100831.28;5089696;28;20052;-69
2023/08/14 01:30:16;;;;;;;1.67;1.40;;;;;;;22.30;98.26;100832.91;5090299;28;20051;-69
2023/08/14 01:32:42;;;;;;;2.03;1.50;;;;;;;22.32;98.08;100825.53;5091218;28;20101;-69
2023/08/14 01:35:08;;;;;;;3.78;1.83;;;;;;;22.30;98.29;100822.28;5087293;28;20044;-69
2023/08/14 01:38:11;;;;;;;3.40;2.20;;;;;;;22.22;99.47;100824.38;5091204;28;20081;-69
2023/08/14 01:40:48;;;;;;;2.95;1.85;;;;;;;22.11;100.00;100818.72;5082662;28;20024;-69
2023/08/14 01:43:26;;;;;;;3.38;1.45;;;;;;;22.01;100.00;100818.38;5090824;28;20061;-69
2023/08/14 01:45:54;;;;;;;2.95;1.70;;;;;;;22.00;100.00;100831.81;5090445;28;20038;-69
2023/08/14 01:48:25;;;;;;;3.05;1.98;;;;;;;22.12;98.90;100823.00;5089177;28;20111;-69
2023/08/14 01:50:53;;;;;;;1.80;1.70;;;;;;;22.45;95.63;100829.97;5085870;28;20375;-69
2023/08/14 01:53:19;;;;;;;2.35;1.80;;;;;;;22.69;93.67;100820.41;5089767;28;20027;-69
2023/08/14 01:55:45;;;;;;;4.25;2.15;;;;;;;22.79;93.28;100828.75;5089375;28;20163;-69
2023/08/14 01:58:10;;;;;;;3.90;2.10;;;;;;;22.76;93.43;100829.97;5088745;28;20048;-69
2023/08/14 02:00:37;;;;;;;2.72;1.95;;;;;;;22.62;94.58;100828.44;5092090;28;20063;-69
2023/08/14 02:03:03;;;;;;;3.00;1.70;;;;;;;22.50;95.59;100823.00;5092497;28;20123;-69
2023/08/14 02:05:28;;;;;;;5.47;2.10;;;;;;;22.35;97.04;100821.66;5088716;28;20046;-69
2023/08/14 02:07:54;;;;;;;2.58;1.70;;;;;;;22.23;97.67;100821.50;5088304;28;20028;-69
2023/08/14 02:10:20;;;;;;;1.98;1.80;;;;;;;22.12;98.53;100823.00;5081202;28;20392;-69
2023/08/14 02:12:45;;;;;;;4.80;2.15;;;;;;;22.09;98.77;100819.97;5089169;28;20043;-69
2023/08/14 02:15:11;;;;;;;1.95;1.85;;;;;;;22.07;99.14;100824.66;5081107;28;20031;-69
2023/08/14 02:17:36;;;;;;;2.58;1.77;;;;;;;21.98;100.00;100828.56;5081867;28;20116;-69
2023/08/14 02:20:02;;;;;;;4.10;2.03;;;;;;;21.88;100.00;100829.00;5089532;28;20035;-69
2023/08/14 02:22:28;;;;;;;3.55;2.13;;;;;;;21.81;100.00;100833.50;5090443;28;20024;-69
2023/08/14 02:24:53;;;;;;;2.30;1.75;;;;;;;21.75;100.00;100824.53;5086179;28;20051;-69
2023/08/14 02:27:19;;;;;;;4.18;1.73;;;;;;;21.71;100.00;100827.84;5093572;28;20043;-69
2023/08/14 02:29:45;;;;;;;2.92;2.67;;;;;;;21.67;100.00;100835.41;5082296;28;20032;-69
2023/08/14 02:32:10;;;;;;;4.35;2.25;;;;;;;21.57;100.00;100824.41;5080145;28;20031;-69
2023/08/14 02:34:47;;;;;;;3.13;1.95;;;;;;;21.49;100.00;100820.13;5094598;28;20032;-68
2023/08/14 02:37:15;;;;;;;5.35;2.92;;;;;;;21.44;100.00;100821.78;5088454;28;20028;-69
2023/08/14 02:39:40;;;;;;;3.10;2.30;;;;;;;21.40;100.00;100816.06;5092459;28;20039;-69
2023/08/14 02:42:06;;;;;;;2.83;2.20;;;;;;;21.33;100.00;100820.56;5093351;28;20035;-69
2023/08/14 02:44:32;;;;;;;2.25;2.05;;;;;;;21.32;100.00;100824.22;5090443;28;20028;-69
2023/08/14 02:46:58;;;;;;;2.60;2.33;;;;;;;21.30;100.00;100810.38;5088448;28;20040;-69
2023/08/14 02:49:24;;;;;;;3.63;2.70;;;;;;;21.28;100.00;100819.56;5086136;28;20100;-69
2023/08/14 02:51:50;;;;;;;5.30;2.50;;;;;;;21.25;100.00;100823.47;5085345;28;20025;-69
2023/08/14 02:54:15;;;;;;;2.10;1.90;;;;;;;21.16;100.00;100825.47;5089746;28;20457;-69
2023/08/14 02:56:41;;;;;;;3.25;2.47;;;;;;;21.12;100.00;100823.44;5089488;28;20059;-69
2023/08/14 02:59:06;;;;;;;2.33;2.00;;;;;;;21.12;100.00;100816.28;5086391;28;20113;-69
2023/08/14 03:01:32;;;;;;;4.22;2.80;;;;;;;21.10;100.00;100817.53;5095186;28;20084;-69
2023/08/14 03:03:57;;;;;;;2.67;2.42;;;;;;;21.09;100.00;100813.25;5092554;28;20035;-69
2023/08/14 03:06:23;;;;;;;4.00;2.50;;;;;;;21.08;100.00;100823.03;5090801;28;20802;-68
2023/08/14 03:08:52;;;;;;;4.38;2.65;;;;;;;21.06;100.00;100818.94;5092951;28;20044;-68
2023/08/14 03:11:17;;;;;;;2.83;2.63;;;;;;;21.05;100.00;100817.31;5095333;28;20052;-69
2023/08/14 03:13:43;;;;;;;4.18;2.50;;;;;;;21.05;100.00;100817.31;5090199;28;20054;-68
2023/08/14 03:16:08;;;;;;;3.53;2.75;;;;;;;21.03;100.00;100819.34;5092390;28;20036;-69
2023/08/14 03:18:34;;;;;;;4.57;3.10;;;;;;;21.02;100.00;100815.06;5092859;28;20458;-69
2023/08/14 03:20:59;;;;;;;5.05;2.85;;;;;;;20.98;100.00;100812.00;5093732;28;20036;-69
2023/08/14 03:23:25;;;;;;;3.45;2.83;;;;;;;20.96;100.00;100813.25;5093848;28;20028;-69
2023/08/14 03:25:50;;;;;;;2.38;2.17;;;;;;;20.95;100.00;100816.91;5089697;28;20028;-69
2023/08/14 03:28:16;;;;;;;2.58;2.38;;;;;;;20.95;100.00;100812.41;5093301;28;20024;-69
2023/08/14 03:30:42;;;;;;;5.28;3.15;;;;;;;20.95;100.00;100815.06;5100176;28;20039;-69
2023/08/14 03:33:08;;;;;;;3.10;2.80;;;;;;;20.96;100.00;100823.81;5093003;28;20110;-69
2023/08/14 03:35:34;;;;;;;4.28;3.17;;;;;;;20.93;100.00;100821.59;5088323;28;20603;-69
2023/08/14 03:37:59;;;;;;;4.63;3.00;;;;;;;20.91;100.00;100826.28;5093344;28;20028;-69
2023/08/14 03:40:25;;;;;;;3.35;2.80;;;;;;;20.86;100.00;100827.69;5091883;28;20025;-69
2023/08/14 03:42:50;;;;;;;4.63;2.92;;;;;;;20.88;100.00;100824.84;5094453;28;20028;-68
2023/08/14 03:45:16;;;;;;;4.00;2.50;;;;;;;20.92;100.00;100828.72;5093028;28;20115;-69
2023/08/14 03:47:41;;;;;;;2.33;2.13;;;;;;;20.88;100.00;100823.00;5092031;28;20031;-69
2023/08/14 03:50:07;;;;;;;3.10;2.80;;;;;;;20.90;100.00;100822.81;5087323;28;20107;-69
2023/08/14 03:52:33;;;;;;;2.97;2.72;;;;;;;20.84;100.00;100820.97;5087145;28;20047;-69
2023/08/14 03:54:58;;;;;;;2.70;2.45;;;;;;;20.85;100.00;100819.94;5087462;28;20044;-69
2023/08/14 03:57:24;;;;;;;4.57;2.58;;;;;;;20.84;100.00;100813.03;5096155;28;20039;-69
2023/08/14 03:59:49;;;;;;;4.43;2.75;;;;;;;20.82;100.00;100813.22;5092295;28;20064;-69
2023/08/14 04:02:14;;;;;;;3.15;2.85;;;;;;;20.82;100.00;100813.22;5099546;28;20032;-69
2023/08/14 04:04:40;;;;;;;3.20;2.90;;;;;;;20.82;100.00;100810.56;5085640;28;20499;-69
2023/08/14 04:07:05;;;;;;;5.50;3.20;;;;;;;20.81;100.00;100811.59;5088098;28;20032;-69
2023/08/14 04:09:31;;;;;;;3.25;3.03;;;;;;;20.82;100.00;100818.53;5090725;28;20480;-69
2023/08/14 04:11:56;;;;;;;3.65;3.08;;;;;;;20.79;100.00;100811.00;5092005;28;20093;-69
2023/08/14 04:14:23;;;;;;;3.33;3.03;;;;;;;20.78;100.00;100814.69;5092710;28;20024;-69
2023/08/14 04:16:48;;;;;;;4.80;3.22;;;;;;;20.79;100.00;100815.50;5091178;28;20039;-69
2023/08/14 04:19:15;;;;;;;4.88;3.80;;;;;;;20.85;100.00;100822.59;5092516;28;20479;-69
2023/08/14 04:21:41;;;;;;;4.40;3.20;;;;;;;20.95;100.00;100824.84;5087547;28;20036;-69
2023/08/14 04:24:08;;;;;;;5.95;3.92;;;;;;;20.97;100.00;100818.31;5097212;28;20490;-69
2023/08/14 04:26:33;;;;;;;5.00;3.53;;;;;;;20.99;100.00;100824.25;5091435;28;20043;-69
2023/08/14 04:28:59;;;;;;;5.85;3.33;;;;;;;20.95;100.00;100823.00;5091018;28;20491;-69
2023/08/14 04:31:24;;;;;;;4.70;3.65;;;;;;;20.90;100.00;100824.63;5093999;28;20027;-69
2023/08/14 04:33:50;;;;;;;4.00;3.35;;;;;;;20.83;100.00;100824.63;5091855;28;20064;-69
2023/08/14 04:36:16;;;;;;;4.40;3.58;;;;;;;20.79;100.00;100834.03;5085917;28;20055;-69
2023/08/14 04:38:41;;;;;;;7.05;3.88;;;;;;;20.79;100.00;100836.69;5093873;28;20020;-69
2023/08/14 04:41:06;;;;;;;3.22;3.03;;;;;;;20.83;100.00;100836.03;5088120;28;20467;-69
2023/08/14 04:43:32;;;;;;;4.10;3.35;;;;;;;20.83;100.00;100829.94;5078646;28;20042;-69
2023/08/14 04:45:58;;;;;;;4.95;3.13;;;;;;;20.88;100.00;100841.53;5087866;28;20027;-71
2023/08/14 04:48:23;;;;;;;5.05;3.28;;;;;;;21.02;100.00;100842.38;5089035;28;20028;-70
2023/08/14 04:50:49;;;;;;;4.28;3.80;;;;;;;21.08;100.00;100844.22;5091540;28;20035;-70
2023/08/14 04:53:14;;;;;;;4.22;3.83;;;;;;;21.15;100.00;100844.22;5090071;28;20085;-70
2023/08/14 04:55:39;;;;;;;8.73;3.75;;;;;;;21.22;100.00;100849.53;5084087;28;20055;-69
2023/08/14 04:58:05;;;;;;;4.43;3.17;;;;;;;21.25;100.00;100842.00;5087143;28;20466;-69
2023/08/14 05:00:30;;;;;;;4.70;3.92;;;;;;;21.29;100.00;100855.63;5093622;28;20028;-69
2023/08/14 05:02:56;;;;;;;5.40;3.80;;;;;;;21.35;100.00;100855.63;5087729;28;20033;-69
2023/08/14 05:05:21;;;;;;;4.03;3.72;;;;;;;21.43;100.00;100851.94;5083835;28;20074;-69
2023/08/14 05:07:46;;;;;;;4.72;4.28;;;;;;;21.50;100.00;100861.53;5085733;28;20111;-69
2023/08/14 05:10:12;;;;;;;4.60;3.90;;;;;;;21.59;100.00;100861.31;5086352;28;20361;-69
2023/08/14 05:12:37;;;;;;;6.60;4.00;;;;;;;21.69;100.00;100865.19;5087290;28;20485;-70
2023/08/14 05:15:03;;;;;;;4.35;3.35;;;;;;;21.73;100.00;100862.94;5085651;28;20020;-70
2023/08/14 05:17:29;;;;;;;4.13;3.72;;;;;;;21.85;100.00;100870.00;5084760;28;20067;-70
2023/08/14 05:19:55;;;;;;;3.75;3.25;;;;;;;21.96;100.00;100873.84;5084721;28;20081;-69
2023/08/14 05:22:21;;;;;;;4.45;2.70;;;;;;;22.06;100.00;100868.16;5085345;28;20027;-69
2023/08/14 05:24:47;;;;;;;5.22;3.75;;;;;;;22.16;98.80;100869.34;5085063;28;20048;-69
2023/08/14 05:27:12;;;;;;;4.80;3.97;;;;;;;22.27;97.73;100870.50;5088791;28;20023;-69
2023/08/14 05:29:38;;;;;;;4.22;3.30;;;;;;;22.37;97.57;100880.66;5080056;28;20046;-69
2023/08/14 05:32:04;;;;;;;2.97;2.72;;;;;;;22.44;97.87;100878.78;5083805;28;20111;-70
2023/08/14 05:34:30;;;;;;;6.10;3.05;;;;;;;22.49;96.43;100878.97;5089059;28;20063;-69
2023/08/14 05:36:55;;;;;;;6.22;2.88;;;;;;;22.58;96.80;100883.00;5089506;28;20507;-70
2023/08/14 05:39:21;;;;;;;3.08;2.78;;;;;;;22.57;97.32;100883.22;5086280;28;20020;-69
2023/08/14 05:41:46;;;;;;;2.80;2.47;;;;;;;22.55;97.13;100887.94;5082266;28;20475;-69
2023/08/14 05:44:12;;;;;;;6.82;2.80;;;;;;;22.56;95.49;100887.72;5086535;28;20438;-69
2023/08/14 05:46:37;;;;;;;8.52;2.53;;;;;;;22.58;95.47;100892.81;5087634;28;20050;-69
2023/08/14 05:49:03;;;;;;;6.30;2.72;;;;;;;22.58;93.92;100890.16;5085664;28;20392;-69
2023/08/14 05:51:28;;;;;;;4.32;2.67;;;;;;;22.64;91.89;100895.44;5089899;28;20417;-69
2023/08/14 05:53:54;;;;;;;4.18;2.60;;;;;;;22.75;91.29;100893.91;5085088;28;20044;-69
2023/08/14 05:56:19;;;;;;;3.83;2.65;;;;;;;22.77;90.86;100890.03;5084675;28;20508;-70
2023/08/14 05:58:45;;;;;;;2.50;1.98;;;;;;;22.91;90.36;100889.97;5083982;28;20078;-70
2023/08/14 06:01:10;;;;;;;3.47;2.58;;;;;;;23.03;89.37;100883.75;5088068;28;20032;-69
2023/08/14 06:03:37;;;;;;;4.15;2.47;;;;;;;23.10;89.39;100876.53;5084499;28;20024;-69
2023/08/14 06:06:04;;;;;;;3.45;2.00;;;;;;;23.13;88.38;100880.63;5084358;28;20042;-69
2023/08/14 06:08:29;;;;;;;2.67;2.05;;;;;;;23.24;87.80;100882.53;5089065;28;20040;-69
2023/08/14 06:10:55;;;;;;;2.20;2.00;;;;;;;23.31;87.23;100883.31;5086097;28;20019;-69
2023/08/14 06:13:20;;;;;;;4.55;2.65;;;;;;;23.34;87.46;100882.88;5086960;28;20032;-69
2023/08/14 06:15:46;;;;;;;5.88;2.30;;;;;;;23.42;87.51;100882.59;5087791;28;20036;-69
2023/08/14 06:18:11;;;;;;;5.90;2.88;;;;;;;23.54;87.06;100882.72;5080761;28;20115;-69
2023/08/14 06:20:36;;;;;;;5.13;2.60;;;;;;;23.58;86.37;100880.44;5082559;28;20028;-69
2023/08/14 06:23:02;;;;;;;5.57;2.53;;;;;;;23.66;85.41;100877.47;5084261;28;20062;-69
2023/08/14 06:25:31;;;;;;;4.05;2.03;;;;;;;23.67;84.12;100879.91;5084842;28;20036;-69
2023/08/14 06:27:56;;;;;;;2.78;2.28;;;;;;;23.75;83.60;100879.63;5080008;28;20027;-69
2023/08/14 06:30:23;;;;;;;5.15;2.08;;;;;;;23.84;83.31;100880.16;5078421;28;20024;-70
2023/08/14 06:32:49;;;;;;;2.72;2.30;;;;;;;23.87;82.66;100881.56;5079324;28;20028;-69
2023/08/14 06:35:14;;;;;;;2.70;2.50;;;;;;;23.94;82.41;100880.47;5079259;28;20491;-69
2023/08/14 06:37:40;;;;;;;6.70;2.42;;;;;;;23.96;82.15;100878.38;5082421;28;20039;-69
2023/08/14 06:40:06;;;;;;;3.30;1.80;;;;;;;24.07;81.81;100877.66;5079887;28;20523;-69
2023/08/14 06:42:32;;;;;;;2.15;1.92;;;;;;;24.19;81.48;100879.53;5083504;28;20036;-69
2023/08/14 06:44:57;;;;;;;4.60;1.95;;;;;;;24.27;81.20;100876.59;5085129;28;20035;-69
2023/08/14 06:47:23;;;;;;;5.15;2.00;;;;;;;24.37;81.03;100876.88;5088551;28;20142;-69
2023/08/14 06:49:49;;;;;;;3.40;1.98;;;;;;;24.43;80.49;100882.13;5090988;28;20395;-69
2023/08/14 06:52:14;;;;;;;2.25;2.05;;;;;;;24.60;80.66;100881.47;5091089;28;20028;-69
2023/08/14 06:54:40;;;;;;;2.03;1.90;;;;;;;24.71;80.52;100878.84;5102952;27;20031;-69
2023/08/14 06:57:05;;;;;;;3.75;1.92;;;;;;;24.65;79.79;100882.41;5089648;28;20446;-71
2023/08/14 06:59:31;;;;;;;2.60;2.00;;;;;;;24.68;79.68;100884.63;5083773;28;20518;-71
2023/08/14 07:01:57;;;;;;;3.42;1.90;;;;;;;24.77;79.78;100890.44;5085679;28;20028;-70
2023/08/14 07:04:22;;;;;;;4.03;1.70;;;;;;;24.89;79.02;100880.63;5087785;28;20028;-71
2023/08/14 07:06:48;;;;;;;2.85;2.17;;;;;;;25.05;78.45;100887.97;5087367;28;20056;-71
2023/08/14 07:09:16;;;;;;;2.90;1.95;;;;;;;25.18;78.00;100881.63;5087029;28;20032;-71
2023/08/14 07:11:42;;;;;;;3.08;1.80;;;;;;;25.27;77.34;100882.09;5084852;28;20016;-70
2023/08/14 07:14:07;;;;;;;3.90;1.83;;;;;;;25.20;74.78;100874.22;5085018;28;20029;-70
2023/08/14 07:16:33;;;;;;;2.08;1.55;;;;;;;25.23;75.14;100875.59;5084336;28;20043;-70
2023/08/14 07:18:59;;;;;;;4.15;2.00;;;;;;;25.34;75.13;100880.13;5088342;28;20043;-70
2023/08/14 07:21:24;;;;;;;1.60;1.40;;;;;;;25.45;75.99;100890.81;5086176;28;20150;-70
2023/08/14 07:23:50;;;;;;;4.03;1.50;;;;;;;25.49;74.42;100896.50;5088943;28;20114;-67
2023/08/14 07:26:16;;;;;;;3.67;1.80;;;;;;;25.57;74.54;100889.97;5084224;28;20036;-66
2023/08/14 07:28:41;;;;;;;5.53;1.50;;;;;;;25.65;75.57;100900.31;5086990;28;20109;-66
2023/08/14 07:31:07;;;;;;;2.22;1.48;;;;;;;25.79;75.04;100896.38;5085445;28;20077;-66
2023/08/14 07:33:34;;;;;;;1.92;1.70;;;;;;;25.86;74.11;100896.25;5081308;28;20036;-66
2023/08/14 07:36:00;;;;;;;3.47;1.25;;;;;;;25.87;73.01;100897.88;5082896;28;20039;-66
2023/08/14 07:38:26;;;;;;;2.05;1.85;;;;;;;25.94;72.12;100898.56;5073452;28;20028;-67
2023/08/14 07:40:55;;;;;;;2.78;2.08;;;;;;;25.89;70.88;100901.94;5078895;28;20086;-66
2023/08/14 07:43:22;;;;;;;3.30;1.40;;;;;;;26.01;70.77;100905.38;5083080;28;20032;-69
2023/08/14 07:45:47;;;;;;;3.35;1.77;;;;;;;26.16;72.18;100909.41;5081150;28;20177;-67
2023/08/14 07:48:13;;;;;;;1.92;1.63;;;;;;;26.28;72.31;100910.19;5090192;28;20420;-67
2023/08/14 07:50:38;;;;;;;2.85;1.60;;;;;;;26.38;71.90;100910.41;5084559;28;20028;-66
2023/08/14 07:53:04;;;;;;;4.30;1.70;;;;;;;26.48;70.93;100912.44;5079853;28;20114;-66
2023/08/14 07:55:29;;;;;;;3.30;1.80;;;;;;;26.57;69.85;100906.50;5077561;28;20044;-67
2023/08/14 07:57:55;;;;;;;2.90;1.80;;;;;;;26.48;69.44;100907.91;5080592;28;20020;-66
2023/08/14 08:00:20;;;;;;;1.77;1.27;;;;;;;26.54;69.58;100906.16;5075867;28;20117;-66
2023/08/14 08:02:46;;;;;;;2.03;1.60;;;;;;;26.63;69.54;100907.41;5090155;28;20110;-66
2023/08/14 08:05:11;;;;;;;6.75;2.10;;;;;;;26.74;69.76;100920.72;5079285;28;20028;-66
2023/08/14 08:07:37;;;;;;;2.08;1.38;;;;;;;26.62;68.69;100919.94;5088379;28;20028;-66
2023/08/14 08:10:02;;;;;;;2.15;1.30;;;;;;;26.56;67.81;100912.88;5082209;28;20035;-66
2023/08/14 08:12:28;;;;;;;2.88;1.90;;;;;;;26.65;67.38;100919.47;5083951;28;20036;-66
2023/08/14 08:14:54;;;;;;;3.22;1.55;;;;;;;26.78;67.73;100913.84;5088425;28;20118;-66
2023/08/14 08:17:20;;;;;;;3.28;1.70;;;;;;;26.85;67.11;100911.00;5086024;28;20028;-66
2023/08/14 08:19:46;;;;;;;1.40;1.27;;;;;;;26.93;66.92;100913.28;5090562;28;20043;-66
2023/08/14 08:22:12;;;;;;;2.70;1.80;;;;;;;26.99;66.87;100917.69;5089615;28;20035;-66
2023/08/14 08:24:38;;;;;;;2.40;1.70;;;;;;;26.97;66.64;100917.09;5084085;28;20044;-65
2023/08/14 08:27:03;;;;;;;3.42;1.98;;;;;;;27.09;66.61;100915.19;5079835;28;20023;-66
2023/08/14 08:29:29;;;;;;;3.08;1.80;;;;;;;27.15;66.56;100910.72;5086290;28;20126;-66
2023/08/14 08:31:55;;;;;;;1.30;1.20;;;;;;;27.23;66.32;100909.50;5085543;28;20027;-66
2023/08/14 08:34:20;;;;;;;2.90;1.40;;;;;;;27.23;66.72;100918.34;5088293;28;20114;-66
2023/08/14 08:36:46;;;;;;;2.38;1.60;;;;;;;27.23;65.66;100913.00;5088774;28;20419;-66
2023/08/14 08:39:11;;;;;;;1.85;1.17;;;;;;;27.32;65.78;100910.72;5087308;28;20118;-67
2023/08/14 08:41:39;;;;;;;2.80;1.67;;;;;;;27.62;66.01;100905.84;5077938;28;20032;-67
2023/08/14 08:44:06;;;;;;;3.70;1.52;;;;;;;27.83;66.04;100909.63;5080261;28;20035;-68
2023/08/14 08:46:36;;;;;;;3.33;1.92;;;;;;;27.89;65.18;100913.94;5082814;28;20040;-67
2023/08/14 08:49:03;;;;;;;1.80;1.50;;;;;;;27.66;66.10;100909.66;5079940;28;20052;-68
2023/08/14 08:51:29;;;;;;;3.38;1.63;;;;;;;27.47;65.65;100913.63;5077805;28;20029;-67
2023/08/14 08:53:55;;;;;;;4.00;2.20;;;;;;;27.52;65.87;100907.53;5074012;28;20082;-66
2023/08/14 08:56:21;;;;;;;3.17;1.73;;;;;;;27.66;65.42;100906.16;5079150;28;20067;-67
2023/08/14 08:58:47;;;;;;;2.08;1.75;;;;;;;27.85;66.48;100910.19;5076139;28;20032;-67
2023/08/14 09:01:13;;;;;;;3.42;2.08;;;;;;;27.92;65.63;100905.44;5080459;28;20031;-67
2023/08/14 09:03:39;;;;;;;4.28;1.95;;;;;;;27.97;65.93;100910.03;5076489;28;20032;-67
2023/08/14 09:06:05;;;;;;;1.75;1.33;;;;;;;28.04;66.06;100916.03;5084627;28;20073;-67
2023/08/14 09:08:31;;;;;;;4.88;1.52;;;;;;;28.01;65.72;100914.66;5080412;28;20025;-66
2023/08/14 09:10:56;;;;;;;2.58;1.65;;;;;;;27.72;65.40;100913.22;5081609;28;20021;-66
2023/08/14 09:13:22;;;;;;;2.30;1.70;;;;;;;27.72;67.00;100918.56;5079856;28;20027;-68
2023/08/14 09:15:48;;;;;;;3.30;1.80;;;;;;;27.78;65.91;100912.22;5079742;28;20472;-66
2023/08/14 09:18:13;;;;;;;3.25;1.77;;;;;;;27.57;66.11;100912.97;5073356;28;20028;-67
2023/08/14 09:20:39;;;;;;;2.13;1.58;;;;;;;27.37;66.55;100918.84;5084346;28;20035;-67
2023/08/14 09:23:12;;;;;;;2.55;1.77;;;;;;;27.53;66.44;100923.34;5076588;28;20028;-67
2023/08/14 09:25:40;;;;;;;3.15;1.55;;;;;;;27.71;66.76;100916.94;5077813;28;20032;-67
2023/08/14 09:28:10;;;;;;;2.42;1.50;;;;;;;27.77;67.11;100915.97;5072791;28;20036;-67
2023/08/14 09:30:37;;;;;;;4.05;2.38;;;;;;;27.62;65.77;100919.22;5080469;28;20111;-67
2023/08/14 09:33:08;;;;;;;2.38;1.73;;;;;;;27.59;66.96;100908.19;5080670;28;20032;-67
2023/08/14 09:35:34;;;;;;;2.15;1.27;;;;;;;27.58;67.52;100911.91;5077158;28;20048;-67
2023/08/14 09:37:59;;;;;;;3.72;1.60;;;;;;;27.72;66.61;100910.53;5082212;28;20136;-67
2023/08/14 09:40:25;;;;;;;2.63;1.50;;;;;;;27.81;65.84;100908.25;5082203;28;20111;-67
2023/08/14 09:42:50;;;;;;;4.10;2.17;;;;;;;27.72;65.91;100915.88;5073417;28;20039;-67
2023/08/14 09:45:18;;;;;;;1.92;1.73;;;;;;;27.62;65.80;100910.38;5083202;28;20024;-67
2023/08/14 09:47:45;;;;;;;1.85;1.35;;;;;;;27.73;65.86;100906.78;5078773;28;20024;-67
2023/08/14 09:50:13;;;;;;;3.63;1.10;;;;;;;27.91;65.09;100909.16;5088151;28;20028;-67
2023/08/14 09:52:39;;;;;;;2.67;1.55;;;;;;;27.82;63.96;100908.00;5083868;28;20078;-67
2023/08/14 09:55:05;;;;;;;1.30;1.20;;;;;;;27.80;64.19;100907.44;5083206;28;20040;-68
2023/08/14 09:57:31;;;;;;;2.75;1.67;;;;;;;27.82;65.07;100908.00;5083765;28;20131;-69
2023/08/14 09:59:56;;;;;;;2.08;1.17;;;;;;;27.83;65.61;100906.94;5089969;28;20379;-69
2023/08/14 10:02:23;;;;;;;3.65;1.65;;;;;;;27.82;64.96;100897.28;5091053;28;20032;-69
2023/08/14 10:04:49;;;;;;;2.35;1.42;;;;;;;27.79;64.81;100892.44;5086018;28;20436;-69
2023/08/14 10:07:16;;;;;;;1.85;1.48;;;;;;;27.72;65.54;100892.59;5077867;28;20032;-69
2023/08/14 10:09:48;;;;;;;1.95;1.73;;;;;;;27.75;62.69;100899.34;5085093;28;20031;-69
2023/08/14 10:12:16;;;;;;;1.42;1.05;;;;;;;27.80;63.28;100890.56;5086267;28;20111;-69
2023/08/14 10:15:00;;;;;;;1.55;1.40;;;;;;;27.74;63.91;100892.34;5083460;28;20024;-69
2023/08/14 10:17:31;;;;;;;2.10;1.30;;;;;;;27.87;61.35;100897.34;5088245;28;20031;-69
2023/08/14 10:20:00;;;;;;;3.17;1.30;;;;;;;27.82;61.38;100889.25;5089718;28;20032;-69
2023/08/14 10:22:27;;;;;;;2.03;1.27;;;;;;;27.86;62.61;100894.94;5090555;28;20024;-69
2023/08/14 10:24:53;;;;;;;1.73;1.40;;;;;;;27.91;63.59;100894.97;5088230;28;20100;-69
2023/08/14 10:27:19;;;;;;;3.40;1.80;;;;;;;27.85;63.74;100894.13;5090553;28;20028;-69
2023/08/14 10:29:47;;;;;;;1.98;1.45;;;;;;;27.88;63.93;100888.25;5086965;28;20031;-69
2023/08/14 10:32:14;;;;;;;3.55;1.58;;;;;;;27.96;64.43;100887.81;5090471;28;20019;-68
2023/08/14 10:34:39;;;;;;;2.13;1.00;;;;;;;27.97;65.12;100886.75;5089147;28;20039;-67
2023/08/14 10:37:05;;;;;;;2.38;1.30;;;;;;;27.92;65.50;100888.56;5087072;28;20554;-70
2023/08/14 10:39:35;;;;;;;1.50;1.40;;;;;;;27.79;65.49;100879.03;5087166;28;20040;-67
2023/08/14 10:42:04;;;;;;;3.38;1.30;;;;;;;27.64;65.12;100886.88;5079927;28;20036;-69
2023/08/14 10:44:38;;;;;;;2.22;1.38;;;;;;;27.79;65.20;100883.59;5088002;28;20046;-69
2023/08/14 10:47:10;;;;;;;3.65;1.10;;;;;;;27.81;65.05;100876.94;5084431;28;20024;-69
2023/08/14 10:49:49;;;;;;;4.63;1.40;;;;;;;27.77;64.86;100881.16;5090289;28;20078;-69
2023/08/14 10:52:16;;;;;;;4.00;1.40;;;;;;;27.78;64.56;100872.06;5086448;28;20470;-69
2023/08/14 10:54:43;;;;;;;2.63;1.42;;;;;;;27.92;63.79;100875.97;5080829;28;20036;-70
2023/08/14 10:57:13;;;;;;;1.75;1.10;;;;;;;28.02;63.56;100878.78;5078377;28;20024;-69
2023/08/14 10:59:41;;;;;;;2.95;1.17;;;;;;;28.10;64.35;100869.50;5084422;28;20039;-67
2023/08/14 11:02:09;;;;;;;1.65;1.27;;;;;;;28.14;64.41;100875.16;5077370;28;20174;-67
2023/08/14 11:04:36;;;;;;;2.55;1.13;;;;;;;28.05;64.53;100874.78;5083281;28;20408;-67
2023/08/14 11:07:05;;;;;;;3.45;1.10;;;;;;;28.04;63.91;100871.31;5082761;28;20024;-68
2023/08/14 11:09:36;;;;;;;1.40;1.25;;;;;;;28.04;63.99;100870.50;5074814;28;20217;-67
2023/08/14 11:12:07;;;;;;;5.65;1.30;;;;;;;28.09;63.82;100874.03;5083652;28;20395;-67
2023/08/14 11:14:38;;;;;;;1.42;1.23;;;;;;;28.09;63.04;100871.38;5085853;28;20040;-67
2023/08/14 11:17:03;;;;;;;4.03;1.38;;;;;;;28.03;63.09;100872.34;5076925;28;20475;-67
2023/08/14 11:19:29;;;;;;;1.98;1.00;;;;;;;28.01;63.11;100871.81;5086528;28;20036;-67